Time;durP1;ratioP1;P1;durP2;ratioP2;P2;SDS_P1;SDS_P2;PMS_P1;PMS_P2;Temp;Humidity;BMP_temperature;BMP_pressure;BME280_temperature;BME280_humidity;BME280_pressure;Samples;Min_cycle;Max_cycle;Signal;HPM_P1;HPM_P2
2024/04/06 00:04:13;;;;;;;3.20;1.65;;;;;;;;;;10371291;28;20075;-64
2024/04/06 00:09:13;;;;;;;2.70;1.50;;;;;;;;;;10372049;28;20064;-64
2024/04/06 00:14:10;;;;;;;5.38;1.42;;;;;;;;;;10372865;28;20087;-63
2024/04/06 00:19:08;;;;;;;1.02;0.98;;;;;;;;;;10373279;28;20074;-65
2024/04/06 00:24:07;;;;;;;3.63;1.30;;;;;;;;;;10374291;28;20036;-65
2024/04/06 00:29:04;;;;;;;2.42;1.73;;;;;;;;;;10374870;28;20063;-64
2024/04/06 00:34:02;;;;;;;2.97;1.20;;;;;;;;;;10374177;28;20084;-64
2024/04/06 00:39:00;;;;;;;1.75;1.10;;;;;;;;;;10373323;28;20059;-65
2024/04/06 00:43:59;;;;;;;2.28;1.45;;;;;;;;;;10371660;28;20067;-65
2024/04/06 00:48:56;;;;;;;5.68;1.70;;;;;;;;;;10375241;28;20071;-65
2024/04/06 00:53:54;;;;;;;6.72;1.90;;;;;;;;;;10370425;28;20083;-64
2024/04/06 00:58:51;;;;;;;1.30;1.20;;;;;;;;;;10368263;28;20547;-64
2024/04/06 01:03:50;;;;;;;2.65;1.30;;;;;;;;;;10371516;28;20066;-65
2024/04/06 01:08:48;;;;;;;2.08;1.40;;;;;;;;;;10370563;28;20066;-64
2024/04/06 01:13:45;;;;;;;3.95;1.27;;;;;;;;;;10371024;28;20577;-64
2024/04/06 01:18:43;;;;;;;1.48;1.38;;;;;;;;;;10370038;28;20078;-65
2024/04/06 01:23:43;;;;;;;1.63;1.40;;;;;;;;;;10368190;28;20072;-65
2024/04/06 01:28:43;;;;;;;2.45;1.60;;;;;;;;;;10370992;28;20079;-64
2024/04/06 01:33:41;;;;;;;3.13;1.30;;;;;;;;;;10369611;28;20072;-64
2024/04/06 01:38:39;;;;;;;2.50;1.48;;;;;;;;;;10371354;28;20052;-64
2024/04/06 01:43:36;;;;;;;4.40;2.10;;;;;;;;;;10370836;28;20098;-66
2024/04/06 01:48:35;;;;;;;1.52;1.40;;;;;;;;;;10370845;28;20100;-66
2024/04/06 01:53:33;;;;;;;2.42;1.70;;;;;;;;;;10370531;28;20071;-65
2024/04/06 01:58:30;;;;;;;1.58;1.20;;;;;;;;;;10369023;28;20831;-65
2024/04/06 02:03:28;;;;;;;2.67;1.20;;;;;;;;;;10379665;28;20425;-64
2024/04/06 02:08:27;;;;;;;4.25;1.52;;;;;;;;;;10378014;28;20527;-64
2024/04/06 02:13:24;;;;;;;1.08;1.00;;;;;;;;;;10368114;28;20133;-65
2024/04/06 02:18:22;;;;;;;1.52;1.30;;;;;;;;;;10369452;28;20635;-64
2024/04/06 02:23:19;;;;;;;1.85;1.35;;;;;;;;;;10369946;28;20063;-64
2024/04/06 02:28:18;;;;;;;1.83;1.20;;;;;;;;;;10367844;28;20074;-64
2024/04/06 02:33:16;;;;;;;1.92;1.35;;;;;;;;;;10371088;28;20086;-65
2024/04/06 02:38:13;;;;;;;5.00;1.58;;;;;;;;;;10367420;28;20079;-64
2024/04/06 02:43:11;;;;;;;1.83;1.15;;;;;;;;;;10368345;28;20071;-65
2024/04/06 02:48:10;;;;;;;1.80;1.48;;;;;;;;;;10367708;28;20075;-64
2024/04/06 02:53:07;;;;;;;5.47;1.83;;;;;;;;;;10366058;28;20077;-64
2024/04/06 02:58:05;;;;;;;3.35;1.23;;;;;;;;;;10369969;28;20054;-65
2024/04/06 03:03:02;;;;;;;1.50;1.20;;;;;;;;;;10369324;28;20442;-64
2024/04/06 03:08:02;;;;;;;1.77;1.45;;;;;;;;;;10367747;28;20063;-66
2024/04/06 03:12:59;;;;;;;2.20;1.30;;;;;;;;;;10366147;28;20327;-66
2024/04/06 03:17:57;;;;;;;1.50;1.40;;;;;;;;;;10375149;28;20488;-65
2024/04/06 03:23:06;;;;;;;2.17;1.40;;;;;;;;;;10353206;28;20068;-65
2024/04/06 03:28:03;;;;;;;3.45;1.48;;;;;;;;;;10373382;28;20528;-65
2024/04/06 03:33:01;;;;;;;1.70;1.13;;;;;;;;;;10373503;28;20067;-65
2024/04/06 03:37:58;;;;;;;1.42;1.33;;;;;;;;;;10376227;28;20473;-66
2024/04/06 03:42:58;;;;;;;1.77;1.45;;;;;;;;;;10375496;28;20067;-64
2024/04/06 03:47:56;;;;;;;2.58;1.42;;;;;;;;;;10373244;28;20508;-65
2024/04/06 03:52:54;;;;;;;1.80;1.45;;;;;;;;;;10358006;28;20080;-64
2024/04/06 03:57:53;;;;;;;1.67;1.55;;;;;;;;;;10373480;28;20083;-65
2024/04/06 04:02:52;;;;;;;1.48;1.20;;;;;;;;;;10374504;28;20086;-65
2024/04/06 04:07:49;;;;;;;1.63;1.52;;;;;;;;;;10372859;28;20082;-64
2024/04/06 04:12:47;;;;;;;3.30;1.40;;;;;;;;;;10373451;28;20477;-66
2024/04/06 04:17:44;;;;;;;1.77;1.23;;;;;;;;;;10372942;28;20514;-65
2024/04/06 04:22:43;;;;;;;1.63;1.30;;;;;;;;;;10373056;28;20684;-65
2024/04/06 04:27:41;;;;;;;3.08;1.60;;;;;;;;;;10371931;28;20056;-64
2024/04/06 04:32:38;;;;;;;1.42;1.33;;;;;;;;;;10373753;28;20063;-64
2024/04/06 04:37:35;;;;;;;4.03;1.88;;;;;;;;;;10380973;28;20076;-63
2024/04/06 04:42:34;;;;;;;2.80;1.35;;;;;;;;;;10383558;28;20072;-64
2024/04/06 04:47:32;;;;;;;2.03;1.42;;;;;;;;;;10371247;28;20149;-64
2024/04/06 04:52:29;;;;;;;8.50;4.85;;;;;;;;;;10372357;28;20462;-65
2024/04/06 04:57:27;;;;;;;4.47;1.83;;;;;;;;;;10371901;28;20071;-64
2024/04/06 05:02:26;;;;;;;1.33;1.20;;;;;;;;;;10370935;28;20070;-64
2024/04/06 05:07:23;;;;;;;1.48;1.20;;;;;;;;;;10370541;28;20137;-64
2024/04/06 05:12:21;;;;;;;2.50;1.77;;;;;;;;;;10356456;28;20084;-64
2024/04/06 05:17:20;;;;;;;1.48;1.38;;;;;;;;;;10371816;28;20070;-64
2024/04/06 05:22:19;;;;;;;2.25;1.73;;;;;;;;;;10352447;28;20181;-64
2024/04/06 05:27:17;;;;;;;2.95;2.42;;;;;;;;;;10370373;28;20055;-64
2024/04/06 05:32:14;;;;;;;2.50;1.95;;;;;;;;;;10369640;28;20063;-63
2024/04/06 05:37:12;;;;;;;4.35;1.95;;;;;;;;;;10369505;28;20090;-64
2024/04/06 05:42:11;;;;;;;3.22;2.20;;;;;;;;;;10370027;28;20067;-64
2024/04/06 05:47:08;;;;;;;3.97;2.28;;;;;;;;;;10370270;28;20082;-64
2024/04/06 05:52:06;;;;;;;4.57;2.70;;;;;;;;;;10369702;28;20068;-65
2024/04/06 05:57:04;;;;;;;5.40;2.28;;;;;;;;;;10379446;28;20063;-64
2024/04/06 06:02:04;;;;;;;4.15;1.83;;;;;;;;;;10379006;28;21854;-63
2024/04/06 06:07:01;;;;;;;1.73;1.52;;;;;;;;;;10367933;28;20075;-64
2024/04/06 06:11:59;;;;;;;3.00;1.60;;;;;;;;;;10368107;28;20529;-64
2024/04/06 06:16:56;;;;;;;3.85;1.95;;;;;;;;;;10370268;28;20032;-64
2024/04/06 06:21:55;;;;;;;2.42;1.48;;;;;;;;;;10365967;28;20079;-65
2024/04/06 06:26:53;;;;;;;4.03;1.90;;;;;;;;;;10368888;28;20067;-64
2024/04/06 06:31:50;;;;;;;4.53;1.70;;;;;;;;;;10366961;28;20083;-64
2024/04/06 06:36:49;;;;;;;3.75;1.80;;;;;;;;;;10371310;28;20491;-64
2024/04/06 06:41:48;;;;;;;2.58;1.50;;;;;;;;;;10369562;28;20544;-65
2024/04/06 06:46:46;;;;;;;2.95;1.80;;;;;;;;;;10367358;28;20075;-63
2024/04/06 06:51:43;;;;;;;1.77;1.67;;;;;;;;;;10366608;28;20086;-63
2024/04/06 06:56:41;;;;;;;3.67;1.80;;;;;;;;;;10374031;28;20059;-64
2024/04/06 07:01:40;;;;;;;4.90;1.80;;;;;;;;;;10377680;28;20455;-63
2024/04/06 07:06:37;;;;;;;3.75;1.40;;;;;;;;;;10366624;28;20090;-63
2024/04/06 07:11:35;;;;;;;2.15;1.73;;;;;;;;;;10369357;27;20063;-64
2024/04/06 07:16:32;;;;;;;3.63;1.70;;;;;;;;;;10365538;28;20567;-63
2024/04/06 07:21:31;;;;;;;9.27;7.57;;;;;;;;;;10355160;28;20099;-64
2024/04/06 07:26:29;;;;;;;5.43;2.53;;;;;;;;;;10359941;28;20074;-65
2024/04/06 07:31:27;;;;;;;2.20;2.00;;;;;;;;;;10362391;28;20520;-64
2024/04/06 07:36:24;;;;;;;4.38;1.90;;;;;;;;;;10367138;28;20538;-65
2024/04/06 07:41:23;;;;;;;3.13;1.92;;;;;;;;;;10380557;28;20086;-65
2024/04/06 07:46:21;;;;;;;4.05;2.30;;;;;;;;;;10372834;28;20078;-65
2024/04/06 07:51:18;;;;;;;3.47;2.53;;;;;;;;;;10374257;28;20085;-66
2024/04/06 07:56:15;;;;;;;4.68;1.88;;;;;;;;;;10375478;28;20072;-65
2024/04/06 08:01:14;;;;;;;9.13;2.47;;;;;;;;;;10373091;28;20074;-65
2024/04/06 08:06:12;;;;;;;4.13;2.35;;;;;;;;;;10375574;28;20072;-64
2024/04/06 08:11:10;;;;;;;5.50;2.47;;;;;;;;;;10368653;28;20067;-63
2024/04/06 08:16:07;;;;;;;5.38;3.13;;;;;;;;;;10377522;28;20185;-63
2024/04/06 08:21:06;;;;;;;2.97;2.28;;;;;;;;;;10376426;28;20048;-64
2024/04/06 08:26:04;;;;;;;6.82;2.35;;;;;;;;;;10377790;28;20036;-64
2024/04/06 08:31:01;;;;;;;7.18;2.72;;;;;;;;;;10377812;28;20079;-65
2024/04/06 08:35:59;;;;;;;3.75;2.80;;;;;;;;;;10380008;28;20078;-65
2024/04/06 08:41:02;;;;;;;3.80;2.80;;;;;;;;;;10356777;28;20068;-64
2024/04/06 08:46:00;;;;;;;5.57;3.03;;;;;;;;;;10374335;28;20059;-65
2024/04/06 08:51:00;;;;;;;10.32;3.67;;;;;;;;;;10375396;28;20442;-65
2024/04/06 08:56:03;;;;;;;4.53;2.80;;;;;;;;;;10374103;28;20441;-65
2024/04/06 09:01:02;;;;;;;4.60;3.05;;;;;;;;;;10375606;28;20874;-63
2024/04/06 09:05:59;;;;;;;6.45;3.28;;;;;;;;;;10368366;28;20089;-64
2024/04/06 09:10:59;;;;;;;11.18;5.85;;;;;;;;;;10363724;28;20055;-63
2024/04/06 09:15:56;;;;;;;15.82;4.55;;;;;;;;;;10367958;28;20090;-65
2024/04/06 09:20:54;;;;;;;6.20;4.22;;;;;;;;;;10378693;27;20074;-64
2024/04/06 09:25:59;;;;;;;6.90;3.30;;;;;;;;;;10366146;28;20531;-65
2024/04/06 09:30:57;;;;;;;7.00;3.17;;;;;;;;;;10366079;28;20075;-64
2024/04/06 09:35:55;;;;;;;7.50;3.03;;;;;;;;;;10371785;28;20059;-63
2024/04/06 09:40:53;;;;;;;10.70;3.55;;;;;;;;;;10367465;28;20083;-65
2024/04/06 09:45:52;;;;;;;3.92;2.65;;;;;;;;;;10367138;28;20068;-65
2024/04/06 09:50:50;;;;;;;6.68;2.80;;;;;;;;;;10374178;28;20078;-63
2024/04/06 09:55:48;;;;;;;8.05;2.90;;;;;;;;;;10379391;28;20083;-63
2024/04/06 10:00:46;;;;;;;6.45;3.20;;;;;;;;;;10371490;28;20454;-62
2024/04/06 10:05:45;;;;;;;4.38;2.92;;;;;;;;;;10365788;28;20068;-62
2024/04/06 10:10:45;;;;;;;5.75;3.58;;;;;;;;;;10370146;28;20083;-63
2024/04/06 10:15:43;;;;;;;6.05;3.35;;;;;;;;;;10361704;28;20083;-62
2024/04/06 10:20:41;;;;;;;11.13;3.97;;;;;;;;;;10370449;28;20070;-63
2024/04/06 10:25:40;;;;;;;6.88;3.55;;;;;;;;;;10369915;28;20059;-62
2024/04/06 10:30:39;;;;;;;3.83;3.30;;;;;;;;;;10370814;28;20062;-64
2024/04/06 10:35:37;;;;;;;7.70;4.43;;;;;;;;;;10368032;28;20081;-63
2024/04/06 10:40:35;;;;;;;8.90;4.13;;;;;;;;;;10369408;28;20067;-62
2024/04/06 10:45:34;;;;;;;8.05;3.63;;;;;;;;;;10370008;27;20067;-61
2024/04/06 10:50:32;;;;;;;5.10;3.90;;;;;;;;;;10373004;27;20071;-63
2024/04/06 10:55:31;;;;;;;6.60;3.65;;;;;;;;;;10363976;28;20497;-63
2024/04/06 11:00:30;;;;;;;8.20;3.50;;;;;;;;;;10365878;28;20071;-62
2024/04/06 11:05:30;;;;;;;10.00;3.97;;;;;;;;;;10367997;28;20063;-64
2024/04/06 11:10:27;;;;;;;6.32;3.35;;;;;;;;;;10367875;28;20075;-61
2024/04/06 11:15:26;;;;;;;7.78;3.55;;;;;;;;;;10368448;28;20071;-64
2024/04/06 11:20:24;;;;;;;7.30;4.82;;;;;;;;;;10360429;28;20907;-64
2024/04/06 11:25:23;;;;;;;6.78;3.55;;;;;;;;;;10363068;28;20076;-63
2024/04/06 11:30:21;;;;;;;7.80;3.30;;;;;;;;;;10364171;28;20496;-65
2024/04/06 11:35:19;;;;;;;8.30;3.50;;;;;;;;;;10377054;28;20063;-64
2024/04/06 11:40:16;;;;;;;9.00;3.55;;;;;;;;;;10371568;28;20075;-64
2024/04/06 11:45:15;;;;;;;9.60;3.70;;;;;;;;;;10376901;28;20070;-65
2024/04/06 11:50:13;;;;;;;6.93;3.08;;;;;;;;;;10372228;28;20076;-65
2024/04/06 11:55:10;;;;;;;7.13;3.10;;;;;;;;;;10373643;28;20080;-65
2024/04/06 12:00:08;;;;;;;4.95;3.25;;;;;;;;;;10370979;27;20462;-65
2024/04/06 12:05:11;;;;;;;4.25;3.58;;;;;;;;;;10378937;27;20075;-64
2024/04/06 12:10:09;;;;;;;5.20;3.47;;;;;;;;;;10372477;28;20072;-64
2024/04/06 12:15:07;;;;;;;8.85;2.80;;;;;;;;;;10374293;28;20091;-64
2024/04/06 12:20:05;;;;;;;5.97;2.92;;;;;;;;;;10375016;28;20063;-64
2024/04/06 12:25:04;;;;;;;8.23;3.30;;;;;;;;;;10374936;27;20059;-64
2024/04/06 12:30:03;;;;;;;3.30;2.83;;;;;;;;;;10374365;28;20144;-65
2024/04/06 12:35:00;;;;;;;7.18;3.30;;;;;;;;;;10376648;27;20806;-65
2024/04/06 12:39:58;;;;;;;7.72;3.67;;;;;;;;;;10374923;28;20063;-65
2024/04/06 12:44:57;;;;;;;7.25;3.08;;;;;;;;;;10365419;27;20079;-65
2024/04/06 12:49:54;;;;;;;6.20;3.20;;;;;;;;;;10367819;28;20071;-64
2024/04/06 12:54:52;;;;;;;6.57;2.78;;;;;;;;;;10363910;27;20119;-64
2024/04/06 12:59:49;;;;;;;7.80;2.95;;;;;;;;;;10372090;28;20064;-65
2024/04/06 13:04:48;;;;;;;4.95;2.78;;;;;;;;;;10368804;28;20056;-65
2024/04/06 13:09:53;;;;;;;4.75;2.60;;;;;;;;;;10364172;28;20528;-65
2024/04/06 13:14:52;;;;;;;8.02;3.97;;;;;;;;;;10369408;28;20524;-65
2024/04/06 13:19:51;;;;;;;4.05;2.28;;;;;;;;;;10374593;27;20078;-65
2024/04/06 13:24:48;;;;;;;2.90;1.80;;;;;;;;;;10377952;27;20306;-64
2024/04/06 13:29:46;;;;;;;3.90;2.25;;;;;;;;;;10366683;28;20512;-64
2024/04/06 13:34:51;;;;;;;3.70;1.70;;;;;;;;;;10363176;28;20831;-65
2024/04/06 13:39:49;;;;;;;3.92;2.13;;;;;;;;;;10372214;28;20517;-64
2024/04/06 13:44:47;;;;;;;2.50;1.88;;;;;;;;;;10365713;28;20078;-64
2024/04/06 13:49:44;;;;;;;1.83;1.63;;;;;;;;;;10372248;28;20097;-65
2024/04/06 13:54:43;;;;;;;2.50;1.63;;;;;;;;;;10371254;28;20083;-64
2024/04/06 13:59:40;;;;;;;2.58;1.42;;;;;;;;;;10370823;28;20078;-64
2024/04/06 14:04:38;;;;;;;2.95;1.70;;;;;;;;;;10370961;28;20063;-63
2024/04/06 14:09:35;;;;;;;1.88;1.48;;;;;;;;;;10377386;28;20127;-65
2024/04/06 14:14:35;;;;;;;3.15;1.70;;;;;;;;;;10370817;28;20090;-65
2024/04/06 14:19:33;;;;;;;2.22;1.65;;;;;;;;;;10371522;28;20071;-65
2024/04/06 14:24:31;;;;;;;5.28;1.77;;;;;;;;;;10370164;28;20067;-67
2024/04/06 14:29:28;;;;;;;3.28;1.45;;;;;;;;;;10366768;28;20468;-66
2024/04/06 14:34:27;;;;;;;5.57;1.52;;;;;;;;;;10365819;28;20064;-65
2024/04/06 14:39:25;;;;;;;7.80;2.47;;;;;;;;;;10370614;28;20075;-64
2024/04/06 14:44:22;;;;;;;3.78;1.75;;;;;;;;;;10366451;28;20067;-64
2024/04/06 14:49:20;;;;;;;2.03;1.77;;;;;;;;;;10361578;28;20468;-65
2024/04/06 14:54:19;;;;;;;2.78;1.70;;;;;;;;;;10367019;28;20075;-65
2024/04/06 14:59:16;;;;;;;4.47;1.80;;;;;;;;;;10367818;27;20090;-64
2024/04/06 15:04:14;;;;;;;7.60;2.25;;;;;;;;;;10367395;28;20074;-64
2024/04/06 15:09:11;;;;;;;4.57;1.60;;;;;;;;;;10365299;28;20492;-65
2024/04/06 15:14:13;;;;;;;2.88;1.80;;;;;;;;;;10365466;28;20086;-65
2024/04/06 15:19:11;;;;;;;3.97;2.05;;;;;;;;;;10365301;28;20075;-64
2024/04/06 15:24:08;;;;;;;3.10;1.60;;;;;;;;;;10380577;28;20513;-64
2024/04/06 15:29:06;;;;;;;4.57;2.08;;;;;;;;;;10379251;28;20102;-64
2024/04/06 15:34:07;;;;;;;3.72;2.17;;;;;;;;;;10376666;28;20067;-64
2024/04/06 15:39:20;;;;;;;3.30;1.83;;;;;;;;;;10379593;28;20071;-65
2024/04/06 15:44:17;;;;;;;5.55;1.63;;;;;;;;;;10396995;27;20078;-65
2024/04/06 15:49:16;;;;;;;6.18;1.73;;;;;;;;;;10379593;27;20064;-64
2024/04/06 15:54:14;;;;;;;1.92;1.63;;;;;;;;;;10382546;28;20074;-65
2024/04/06 15:59:11;;;;;;;2.53;2.05;;;;;;;;;;10378552;28;20075;-64
2024/04/06 16:04:09;;;;;;;2.70;1.88;;;;;;;;;;10378853;28;20563;-64
2024/04/06 16:09:08;;;;;;;3.03;1.65;;;;;;;;;;10380363;28;20067;-64
2024/04/06 16:14:06;;;;;;;3.20;2.00;;;;;;;;;;10379112;28;20083;-64
2024/04/06 16:19:04;;;;;;;7.22;2.40;;;;;;;;;;10379212;28;20078;-64
2024/04/06 16:24:01;;;;;;;2.92;1.70;;;;;;;;;;10378308;28;20497;-64
2024/04/06 16:29:00;;;;;;;6.55;4.13;;;;;;;;;;10379814;28;20063;-64
2024/04/06 16:33:58;;;;;;;7.65;3.80;;;;;;;;;;10370060;28;20083;-64
2024/04/06 16:38:55;;;;;;;5.28;3.28;;;;;;;;;;10374459;28;20071;-63
2024/04/06 16:43:53;;;;;;;11.05;5.50;;;;;;;;;;10370972;28;20067;-64
2024/04/06 16:48:52;;;;;;;8.32;4.63;;;;;;;;;;10370409;28;20055;-65
2024/04/06 16:53:50;;;;;;;4.60;3.70;;;;;;;;;;10374071;28;20067;-65
2024/04/06 16:58:47;;;;;;;7.95;3.03;;;;;;;;;;10370564;28;20090;-65
2024/04/06 17:03:45;;;;;;;3.85;3.00;;;;;;;;;;10370655;28;20056;-64
2024/04/06 17:08:43;;;;;;;6.15;3.00;;;;;;;;;;10374237;28;20082;-63
2024/04/06 17:13:41;;;;;;;8.57;3.35;;;;;;;;;;10369605;28;20071;-63
2024/04/06 17:18:38;;;;;;;12.00;5.63;;;;;;;;;;10372820;28;20154;-63
2024/04/06 17:23:36;;;;;;;11.93;3.13;;;;;;;;;;10374486;27;20067;-63
2024/04/06 17:28:35;;;;;;;12.63;3.42;;;;;;;;;;10371808;28;20477;-63
2024/04/06 17:33:32;;;;;;;6.45;2.97;;;;;;;;;;10370110;28;20071;-63
2024/04/06 17:38:30;;;;;;;6.57;4.07;;;;;;;;;;10371147;28;20102;-63
2024/04/06 17:43:30;;;;;;;6.18;3.63;;;;;;;;;;10368299;28;20098;-62
2024/04/06 17:48:28;;;;;;;6.75;4.18;;;;;;;;;;10378133;28;20060;-63
2024/04/06 17:53:27;;;;;;;5.55;3.35;;;;;;;;;;10374568;27;20470;-64
2024/04/06 17:58:24;;;;;;;8.45;2.38;;;;;;;;;;10369233;28;20071;-64
2024/04/06 18:03:22;;;;;;;4.15;2.70;;;;;;;;;;10372258;28;20071;-64
2024/04/06 18:08:22;;;;;;;3.95;2.10;;;;;;;;;;10379216;28;20099;-64
2024/04/06 18:13:20;;;;;;;7.32;2.72;;;;;;;;;;10368115;28;20091;-64
2024/04/06 18:18:17;;;;;;;4.43;3.05;;;;;;;;;;10368827;28;20529;-64
2024/04/06 18:23:16;;;;;;;3.83;2.20;;;;;;;;;;10365781;28;20079;-64
2024/04/06 18:28:15;;;;;;;2.60;2.03;;;;;;;;;;10366751;28;20075;-64
2024/04/06 18:33:12;;;;;;;3.47;2.60;;;;;;;;;;10366592;28;20075;-64
2024/04/06 18:38:10;;;;;;;3.17;2.72;;;;;;;;;;10371444;28;20511;-64
2024/04/06 18:43:07;;;;;;;6.22;3.40;;;;;;;;;;10364866;28;20063;-65
2024/04/06 18:48:07;;;;;;;11.95;4.40;;;;;;;;;;10368342;28;20070;-64
2024/04/06 18:53:05;;;;;;;6.60;3.03;;;;;;;;;;10365452;28;20098;-64
2024/04/06 18:58:02;;;;;;;6.43;2.75;;;;;;;;;;10365577;28;20082;-64
2024/04/06 19:03:00;;;;;;;3.45;2.30;;;;;;;;;;10367481;28;20078;-65
2024/04/06 19:07:59;;;;;;;5.32;3.25;;;;;;;;;;10368720;28;20055;-65
2024/04/06 19:12:56;;;;;;;17.45;5.03;;;;;;;;;;10365980;28;20074;-65
2024/04/06 19:17:54;;;;;;;8.02;2.67;;;;;;;;;;10367500;28;20551;-66
2024/04/06 19:22:51;;;;;;;5.45;2.40;;;;;;;;;;10378885;28;20523;-65
2024/04/06 19:27:50;;;;;;;6.50;2.75;;;;;;;;;;10366375;28;20056;-65
2024/04/06 19:32:47;;;;;;;3.85;1.90;;;;;;;;;;10365181;28;20074;-64
2024/04/06 19:37:45;;;;;;;5.47;1.55;;;;;;;;;;10370804;28;20471;-63
2024/04/06 19:42:42;;;;;;;3.03;1.60;;;;;;;;;;10367102;28;20063;-64
2024/04/06 19:47:41;;;;;;;5.97;1.35;;;;;;;;;;10367536;28;20519;-64
2024/04/06 19:52:39;;;;;;;3.92;1.92;;;;;;;;;;10368751;28;20071;-64
2024/04/06 19:57:38;;;;;;;3.40;1.80;;;;;;;;;;10364654;28;20075;-64
2024/04/06 20:02:36;;;;;;;2.05;1.48;;;;;;;;;;10367952;28;20086;-65
2024/04/06 20:07:35;;;;;;;1.73;0.93;;;;;;;;;;10350176;28;20082;-65
2024/04/06 20:12:32;;;;;;;1.42;1.17;;;;;;;;;;10373983;28;20472;-65
2024/04/06 20:17:29;;;;;;;1.60;1.38;;;;;;;;;;10373394;28;20496;-65
2024/04/06 20:27:43;;;;;;;1.80;1.40;;;;;;;;;;10375178;28;20091;-65
2024/04/06 20:32:40;;;;;;;2.95;1.80;;;;;;;;;;10372828;28;20058;-65
2024/04/06 20:37:38;;;;;;;2.00;1.80;;;;;;;;;;10373591;28;20551;-65
2024/04/06 20:42:35;;;;;;;2.30;1.63;;;;;;;;;;10378582;28;20055;-65
2024/04/06 20:47:34;;;;;;;2.22;1.30;;;;;;;;;;10373913;28;20078;-65
2024/04/06 20:52:33;;;;;;;1.40;1.02;;;;;;;;;;10373664;28;20075;-65
2024/04/06 20:57:31;;;;;;;2.40;1.48;;;;;;;;;;10372053;28;20071;-65
2024/04/06 21:02:28;;;;;;;2.55;1.58;;;;;;;;;;10372790;28;20074;-65
2024/04/06 21:07:27;;;;;;;1.80;1.70;;;;;;;;;;10372932;28;20071;-66
2024/04/06 21:12:24;;;;;;;3.40;1.30;;;;;;;;;;10371078;28;20075;-66
2024/04/06 21:17:22;;;;;;;3.58;2.30;;;;;;;;;;10372125;28;20070;-67
2024/04/06 21:22:20;;;;;;;3.30;2.22;;;;;;;;;;10371064;28;20067;-67
2024/04/06 21:27:19;;;;;;;3.35;2.67;;;;;;;;;;10370728;28;20063;-67
2024/04/06 21:32:18;;;;;;;3.53;2.15;;;;;;;;;;10370344;28;20055;-66
2024/04/06 21:37:15;;;;;;;4.53;2.17;;;;;;;;;;10369420;28;20075;-66
2024/04/06 21:42:13;;;;;;;3.70;2.60;;;;;;;;;;10370949;28;20063;-66
2024/04/06 21:47:12;;;;;;;5.47;3.92;;;;;;;;;;10370016;28;20550;-66
2024/04/06 21:52:11;;;;;;;4.00;2.53;;;;;;;;;;10368606;28;20513;-65
2024/04/06 21:57:08;;;;;;;3.75;2.80;;;;;;;;;;10370007;28;20294;-65
2024/04/06 22:02:06;;;;;;;2.40;2.20;;;;;;;;;;10379044;28;20098;-65
2024/04/06 22:07:05;;;;;;;1.60;1.25;;;;;;;;;;10367216;28;20083;-64
2024/04/06 22:12:04;;;;;;;4.15;1.73;;;;;;;;;;10370634;28;20074;-66
2024/04/06 22:17:02;;;;;;;2.10;1.90;;;;;;;;;;10368913;28;20070;-66
2024/04/06 22:21:59;;;;;;;2.00;1.58;;;;;;;;;;10366691;28;20067;-67
2024/04/06 22:26:58;;;;;;;2.70;1.83;;;;;;;;;;10368265;28;20063;-66
2024/04/06 22:31:56;;;;;;;2.13;1.77;;;;;;;;;;10366144;28;20068;-66
2024/04/06 22:36:53;;;;;;;2.92;2.10;;;;;;;;;;10368410;28;20093;-66
2024/04/06 22:41:51;;;;;;;9.30;2.58;;;;;;;;;;10369007;28;20474;-66
2024/04/06 22:46:50;;;;;;;2.03;1.70;;;;;;;;;;10369846;28;20099;-66
2024/04/06 22:51:47;;;;;;;5.15;2.38;;;;;;;;;;10367226;28;20501;-66
2024/04/06 22:56:45;;;;;;;1.70;1.60;;;;;;;;;;10366734;28;20075;-65
2024/04/06 23:01:42;;;;;;;3.95;2.33;;;;;;;;;;10367400;28;20075;-66
2024/04/06 23:06:41;;;;;;;4.18;2.17;;;;;;;;;;10367319;28;20081;-66
2024/04/06 23:11:39;;;;;;;3.25;2.00;;;;;;;;;;10370814;28;20505;-66
2024/04/06 23:16:36;;;;;;;1.77;1.40;;;;;;;;;;10376392;28;20118;-66
2024/04/06 23:21:34;;;;;;;1.50;1.40;;;;;;;;;;10366225;28;20512;-66
2024/04/06 23:26:33;;;;;;;1.42;1.25;;;;;;;;;;10369144;28;20504;-64
2024/04/06 23:31:31;;;;;;;1.92;1.75;;;;;;;;;;10365978;28;20063;-66
2024/04/06 23:36:29;;;;;;;1.33;1.23;;;;;;;;;;10366094;28;20060;-66
2024/04/06 23:41:27;;;;;;;1.83;1.30;;;;;;;;;;10369789;28;20074;-66
2024/04/06 23:46:25;;;;;;;1.30;1.20;;;;;;;;;;10375151;28;20063;-66
2024/04/06 23:51:23;;;;;;;2.67;1.92;;;;;;;;;;10374623;28;20059;-65
2024/04/06 23:56:21;;;;;;;2.67;1.35;;;;;;;;;;10374100;28;20071;-65
